sensor_id;sensor_type;location;lat;lon;timestamp;P1;durP1;ratioP1;P2;durP2;ratioP2
83560;SDS011;73534;52.584;13.392;2023-12-22T00:01:10;5.63;;;2.90;;
83560;SDS011;73534;52.584;13.392;2023-12-22T00:03:36;5.40;;;2.00;;
83560;SDS011;73534;52.584;13.392;2023-12-22T00:06:02;8.13;;;3.53;;
83560;SDS011;73534;52.584;13.392;2023-12-22T00:08:27;5.45;;;3.22;;
83560;SDS011;73534;52.584;13.392;2023-12-22T00:10:52;7.63;;;2.85;;
83560;SDS011;73534;52.584;13.392;2023-12-22T00:13:18;5.95;;;2.08;;
83560;SDS011;73534;52.584;13.392;2023-12-22T00:15:43;7.65;;;2.88;;
83560;SDS011;73534;52.584;13.392;2023-12-22T00:18:08;5.15;;;2.35;;
83560;SDS011;73534;52.584;13.392;2023-12-22T00:20:34;9.93;;;3.03;;
83560;SDS011;73534;52.584;13.392;2023-12-22T00:22:59;4.60;;;2.70;;
83560;SDS011;73534;52.584;13.392;2023-12-22T00:25:24;7.53;;;3.20;;
83560;SDS011;73534;52.584;13.392;2023-12-22T00:27:50;6.95;;;3.45;;
83560;SDS011;73534;52.584;13.392;2023-12-22T00:30:15;10.85;;;3.33;;
83560;SDS011;73534;52.584;13.392;2023-12-22T00:32:41;5.75;;;2.40;;
83560;SDS011;73534;52.584;13.392;2023-12-22T00:35:06;7.22;;;3.08;;
83560;SDS011;73534;52.584;13.392;2023-12-22T00:37:31;8.75;;;2.78;;
83560;SDS011;73534;52.584;13.392;2023-12-22T00:39:57;5.75;;;2.63;;
83560;SDS011;73534;52.584;13.392;2023-12-22T00:42:22;10.82;;;3.15;;
83560;SDS011;73534;52.584;13.392;2023-12-22T00:44:47;7.53;;;4.20;;
83560;SDS011;73534;52.584;13.392;2023-12-22T00:47:13;7.95;;;3.03;;
83560;SDS011;73534;52.584;13.392;2023-12-22T00:49:38;11.73;;;2.85;;
83560;SDS011;73534;52.584;13.392;2023-12-22T00:52:03;10.82;;;3.10;;
83560;SDS011;73534;52.584;13.392;2023-12-22T00:54:29;13.20;;;3.00;;
83560;SDS011;73534;52.584;13.392;2023-12-22T00:56:56;10.20;;;3.30;;
83560;SDS011;73534;52.584;13.392;2023-12-22T00:59:22;12.23;;;3.88;;
83560;SDS011;73534;52.584;13.392;2023-12-22T01:01:47;10.25;;;3.10;;
83560;SDS011;73534;52.584;13.392;2023-12-22T01:04:12;9.80;;;3.97;;
83560;SDS011;73534;52.584;13.392;2023-12-22T01:06:39;9.55;;;3.83;;
83560;SDS011;73534;52.584;13.392;2023-12-22T01:09:04;10.98;;;3.35;;
83560;SDS011;73534;52.584;13.392;2023-12-22T01:11:30;10.73;;;3.25;;
83560;SDS011;73534;52.584;13.392;2023-12-22T01:13:55;8.38;;;2.53;;
83560;SDS011;73534;52.584;13.392;2023-12-22T01:16:20;8.20;;;2.70;;
83560;SDS011;73534;52.584;13.392;2023-12-22T01:18:47;10.35;;;3.13;;
83560;SDS011;73534;52.584;13.392;2023-12-22T01:21:12;6.70;;;2.17;;
83560;SDS011;73534;52.584;13.392;2023-12-22T01:23:38;7.55;;;4.00;;
83560;SDS011;73534;52.584;13.392;2023-12-22T01:26:03;9.00;;;3.80;;
83560;SDS011;73534;52.584;13.392;2023-12-22T01:28:28;6.40;;;3.00;;
83560;SDS011;73534;52.584;13.392;2023-12-22T01:30:53;4.32;;;2.00;;
83560;SDS011;73534;52.584;13.392;2023-12-22T01:33:19;6.68;;;3.00;;
83560;SDS011;73534;52.584;13.392;2023-12-22T01:35:44;9.93;;;3.42;;
83560;SDS011;73534;52.584;13.392;2023-12-22T01:38:09;11.40;;;3.70;;
83560;SDS011;73534;52.584;13.392;2023-12-22T01:40:35;9.65;;;3.00;;
83560;SDS011;73534;52.584;13.392;2023-12-22T01:43:01;8.32;;;3.42;;
83560;SDS011;73534;52.584;13.392;2023-12-22T01:45:26;8.20;;;2.80;;
83560;SDS011;73534;52.584;13.392;2023-12-22T01:47:51;10.45;;;3.08;;
83560;SDS011;73534;52.584;13.392;2023-12-22T01:50:17;6.63;;;2.92;;
83560;SDS011;73534;52.584;13.392;2023-12-22T01:52:42;7.07;;;2.65;;
83560;SDS011;73534;52.584;13.392;2023-12-22T01:55:08;4.68;;;2.45;;
83560;SDS011;73534;52.584;13.392;2023-12-22T02:00:00;7.20;;;2.70;;
83560;SDS011;73534;52.584;13.392;2023-12-22T02:02:27;7.13;;;3.22;;
83560;SDS011;73534;52.584;13.392;2023-12-22T02:04:52;5.90;;;2.10;;
83560;SDS011;73534;52.584;13.392;2023-12-22T02:07:18;5.97;;;3.30;;
83560;SDS011;73534;52.584;13.392;2023-12-22T02:09:43;10.25;;;3.60;;
83560;SDS011;73534;52.584;13.392;2023-12-22T02:12:08;10.38;;;3.30;;
83560;SDS011;73534;52.584;13.392;2023-12-22T02:14:34;14.25;;;3.53;;
83560;SDS011;73534;52.584;13.392;2023-12-22T02:17:06;10.35;;;3.15;;
83560;SDS011;73534;52.584;13.392;2023-12-22T02:19:43;12.07;;;3.10;;
83560;SDS011;73534;52.584;13.392;2023-12-22T02:22:09;6.07;;;3.03;;
83560;SDS011;73534;52.584;13.392;2023-12-22T02:24:36;7.68;;;3.17;;
83560;SDS011;73534;52.584;13.392;2023-12-22T02:27:27;11.13;;;3.30;;
83560;SDS011;73534;52.584;13.392;2023-12-22T02:32:47;8.23;;;2.83;;
83560;SDS011;73534;52.584;13.392;2023-12-22T02:35:14;11.70;;;2.88;;
83560;SDS011;73534;52.584;13.392;2023-12-22T02:37:40;9.43;;;3.70;;
83560;SDS011;73534;52.584;13.392;2023-12-22T02:40:07;9.57;;;2.85;;
83560;SDS011;73534;52.584;13.392;2023-12-22T02:42:33;4.78;;;2.45;;
83560;SDS011;73534;52.584;13.392;2023-12-22T02:44:59;11.73;;;3.15;;
83560;SDS011;73534;52.584;13.392;2023-12-22T02:47:25;7.35;;;2.88;;
83560;SDS011;73534;52.584;13.392;2023-12-22T02:49:53;10.60;;;4.05;;
83560;SDS011;73534;52.584;13.392;2023-12-22T02:52:18;5.22;;;2.90;;
83560;SDS011;73534;52.584;13.392;2023-12-22T02:54:44;6.60;;;2.97;;
83560;SDS011;73534;52.584;13.392;2023-12-22T02:57:09;9.15;;;3.03;;
83560;SDS011;73534;52.584;13.392;2023-12-22T02:59:34;9.80;;;2.85;;
83560;SDS011;73534;52.584;13.392;2023-12-22T03:02:01;6.28;;;2.85;;
83560;SDS011;73534;52.584;13.392;2023-12-22T03:04:27;6.53;;;2.97;;
83560;SDS011;73534;52.584;13.392;2023-12-22T03:06:52;12.60;;;2.90;;
83560;SDS011;73534;52.584;13.392;2023-12-22T03:09:17;6.45;;;2.50;;
83560;SDS011;73534;52.584;13.392;2023-12-22T03:11:42;8.63;;;2.58;;
83560;SDS011;73534;52.584;13.392;2023-12-22T03:14:08;4.15;;;1.92;;
83560;SDS011;73534;52.584;13.392;2023-12-22T03:16:35;6.45;;;2.83;;
83560;SDS011;73534;52.584;13.392;2023-12-22T03:19:00;8.13;;;2.50;;
83560;SDS011;73534;52.584;13.392;2023-12-22T03:21:25;6.53;;;2.40;;
83560;SDS011;73534;52.584;13.392;2023-12-22T03:23:50;5.47;;;2.38;;
83560;SDS011;73534;52.584;13.392;2023-12-22T03:26:16;5.97;;;1.90;;
83560;SDS011;73534;52.584;13.392;2023-12-22T03:28:41;4.57;;;2.42;;
83560;SDS011;73534;52.584;13.392;2023-12-22T03:31:06;6.30;;;1.85;;
83560;SDS011;73534;52.584;13.392;2023-12-22T03:33:32;4.20;;;2.22;;
83560;SDS011;73534;52.584;13.392;2023-12-22T03:35:58;4.75;;;2.72;;
83560;SDS011;73534;52.584;13.392;2023-12-22T03:38:23;3.53;;;1.98;;
83560;SDS011;73534;52.584;13.392;2023-12-22T03:40:48;4.68;;;2.20;;
83560;SDS011;73534;52.584;13.392;2023-12-22T03:43:14;4.65;;;2.22;;
83560;SDS011;73534;52.584;13.392;2023-12-22T03:45:39;4.78;;;2.97;;
83560;SDS011;73534;52.584;13.392;2023-12-22T03:48:04;7.22;;;2.50;;
83560;SDS011;73534;52.584;13.392;2023-12-22T03:50:30;5.22;;;2.53;;
83560;SDS011;73534;52.584;13.392;2023-12-22T03:52:55;4.53;;;2.53;;
83560;SDS011;73534;52.584;13.392;2023-12-22T03:55:21;6.80;;;3.05;;
83560;SDS011;73534;52.584;13.392;2023-12-22T03:57:46;6.95;;;2.08;;
83560;SDS011;73534;52.584;13.392;2023-12-22T04:00:12;10.00;;;2.63;;
83560;SDS011;73534;52.584;13.392;2023-12-22T04:02:38;33.05;;;3.05;;
83560;SDS011;73534;52.584;13.392;2023-12-22T04:05:04;7.65;;;3.10;;
83560;SDS011;73534;52.584;13.392;2023-12-22T04:07:30;5.00;;;2.25;;
83560;SDS011;73534;52.584;13.392;2023-12-22T04:09:55;3.75;;;1.73;;
83560;SDS011;73534;52.584;13.392;2023-12-22T04:12:21;6.03;;;2.45;;
83560;SDS011;73534;52.584;13.392;2023-12-22T04:14:46;7.38;;;1.98;;
83560;SDS011;73534;52.584;13.392;2023-12-22T04:17:11;3.50;;;1.45;;
83560;SDS011;73534;52.584;13.392;2023-12-22T04:19:36;5.43;;;2.13;;
83560;SDS011;73534;52.584;13.392;2023-12-22T04:22:02;3.17;;;2.08;;
83560;SDS011;73534;52.584;13.392;2023-12-22T04:24:27;3.95;;;1.80;;
83560;SDS011;73534;52.584;13.392;2023-12-22T04:26:53;1.25;;;1.08;;
83560;SDS011;73534;52.584;13.392;2023-12-22T04:29:18;2.22;;;1.40;;
83560;SDS011;73534;52.584;13.392;2023-12-22T04:31:43;2.20;;;1.40;;
83560;SDS011;73534;52.584;13.392;2023-12-22T04:34:09;4.13;;;1.60;;
83560;SDS011;73534;52.584;13.392;2023-12-22T04:36:35;3.90;;;1.60;;
83560;SDS011;73534;52.584;13.392;2023-12-22T04:39:00;2.08;;;1.70;;
83560;SDS011;73534;52.584;13.392;2023-12-22T04:41:26;5.43;;;2.15;;
83560;SDS011;73534;52.584;13.392;2023-12-22T04:43:51;2.20;;;1.83;;
83560;SDS011;73534;52.584;13.392;2023-12-22T04:46:16;2.15;;;1.83;;
83560;SDS011;73534;52.584;13.392;2023-12-22T04:48:41;2.65;;;1.60;;
83560;SDS011;73534;52.584;13.392;2023-12-22T04:51:07;3.65;;;1.95;;
83560;SDS011;73534;52.584;13.392;2023-12-22T04:53:32;3.47;;;1.60;;
83560;SDS011;73534;52.584;13.392;2023-12-22T04:55:57;3.63;;;1.50;;
83560;SDS011;73534;52.584;13.392;2023-12-22T04:58:23;2.55;;;1.60;;
83560;SDS011;73534;52.584;13.392;2023-12-22T05:00:49;6.32;;;1.95;;
83560;SDS011;73534;52.584;13.392;2023-12-22T05:03:14;2.25;;;1.75;;
83560;SDS011;73534;52.584;13.392;2023-12-22T05:05:39;3.60;;;1.80;;
83560;SDS011;73534;52.584;13.392;2023-12-22T05:08:05;2.05;;;1.60;;
83560;SDS011;73534;52.584;13.392;2023-12-22T05:10:30;7.30;;;1.70;;
83560;SDS011;73534;52.584;13.392;2023-12-22T05:12:55;2.97;;;1.67;;
83560;SDS011;73534;52.584;13.392;2023-12-22T05:15:21;3.35;;;1.60;;
83560;SDS011;73534;52.584;13.392;2023-12-22T05:17:46;2.70;;;1.40;;
83560;SDS011;73534;52.584;13.392;2023-12-22T05:20:11;2.22;;;1.52;;
83560;SDS011;73534;52.584;13.392;2023-12-22T05:22:36;2.75;;;1.65;;
83560;SDS011;73534;52.584;13.392;2023-12-22T05:25:02;2.28;;;1.67;;
83560;SDS011;73534;52.584;13.392;2023-12-22T05:27:27;1.92;;;1.08;;
83560;SDS011;73534;52.584;13.392;2023-12-22T05:29:53;1.75;;;1.65;;
83560;SDS011;73534;52.584;13.392;2023-12-22T05:32:18;2.22;;;1.55;;
83560;SDS011;73534;52.584;13.392;2023-12-22T05:34:43;3.25;;;1.55;;
83560;SDS011;73534;52.584;13.392;2023-12-22T05:37:09;3.90;;;2.15;;
83560;SDS011;73534;52.584;13.392;2023-12-22T05:39:34;3.83;;;2.25;;
83560;SDS011;73534;52.584;13.392;2023-12-22T05:41:59;2.40;;;1.35;;
83560;SDS011;73534;52.584;13.392;2023-12-22T05:44:24;3.67;;;1.40;;
83560;SDS011;73534;52.584;13.392;2023-12-22T05:46:54;3.33;;;1.58;;
83560;SDS011;73534;52.584;13.392;2023-12-22T05:49:19;2.40;;;2.20;;
83560;SDS011;73534;52.584;13.392;2023-12-22T05:51:44;2.70;;;1.50;;
83560;SDS011;73534;52.584;13.392;2023-12-22T05:54:10;3.90;;;1.58;;
83560;SDS011;73534;52.584;13.392;2023-12-22T05:56:36;2.10;;;1.80;;
83560;SDS011;73534;52.584;13.392;2023-12-22T05:59:01;3.28;;;1.85;;
83560;SDS011;73534;52.584;13.392;2023-12-22T06:01:28;1.77;;;1.63;;
83560;SDS011;73534;52.584;13.392;2023-12-22T06:03:53;4.22;;;1.70;;
83560;SDS011;73534;52.584;13.392;2023-12-22T06:06:19;4.07;;;2.13;;
83560;SDS011;73534;52.584;13.392;2023-12-22T06:08:45;7.32;;;1.80;;
83560;SDS011;73534;52.584;13.392;2023-12-22T06:11:10;4.88;;;1.80;;
83560;SDS011;73534;52.584;13.392;2023-12-22T06:13:35;2.30;;;1.63;;
83560;SDS011;73534;52.584;13.392;2023-12-22T06:16:01;2.78;;;1.48;;
83560;SDS011;73534;52.584;13.392;2023-12-22T06:18:32;2.38;;;1.95;;
83560;SDS011;73534;52.584;13.392;2023-12-22T06:20:57;2.58;;;1.70;;
83560;SDS011;73534;52.584;13.392;2023-12-22T06:23:22;1.67;;;1.40;;
83560;SDS011;73534;52.584;13.392;2023-12-22T06:25:47;3.42;;;2.38;;
83560;SDS011;73534;52.584;13.392;2023-12-22T06:28:13;7.07;;;1.88;;
83560;SDS011;73534;52.584;13.392;2023-12-22T06:30:38;3.88;;;1.55;;
83560;SDS011;73534;52.584;13.392;2023-12-22T06:33:03;6.32;;;2.00;;
83560;SDS011;73534;52.584;13.392;2023-12-22T06:35:29;2.70;;;1.55;;
83560;SDS011;73534;52.584;13.392;2023-12-22T06:37:54;2.60;;;1.48;;
83560;SDS011;73534;52.584;13.392;2023-12-22T06:40:20;1.85;;;1.40;;
83560;SDS011;73534;52.584;13.392;2023-12-22T06:42:46;3.80;;;1.98;;
83560;SDS011;73534;52.584;13.392;2023-12-22T06:45:11;1.75;;;1.52;;
83560;SDS011;73534;52.584;13.392;2023-12-22T06:47:36;3.00;;;1.50;;
83560;SDS011;73534;52.584;13.392;2023-12-22T06:50:02;3.65;;;2.03;;
83560;SDS011;73534;52.584;13.392;2023-12-22T06:52:28;3.72;;;1.58;;
83560;SDS011;73534;52.584;13.392;2023-12-22T06:54:53;1.73;;;1.27;;
83560;SDS011;73534;52.584;13.392;2023-12-22T06:57:18;2.65;;;1.85;;
83560;SDS011;73534;52.584;13.392;2023-12-22T06:59:44;2.58;;;1.70;;
83560;SDS011;73534;52.584;13.392;2023-12-22T07:02:09;5.85;;;2.20;;
83560;SDS011;73534;52.584;13.392;2023-12-22T07:04:34;2.45;;;1.50;;
83560;SDS011;73534;52.584;13.392;2023-12-22T07:07:00;3.70;;;1.83;;
83560;SDS011;73534;52.584;13.392;2023-12-22T07:11:53;2.75;;;1.80;;
83560;SDS011;73534;52.584;13.392;2023-12-22T07:14:19;6.20;;;1.55;;
83560;SDS011;73534;52.584;13.392;2023-12-22T07:16:44;2.10;;;1.90;;
83560;SDS011;73534;52.584;13.392;2023-12-22T07:19:10;2.33;;;1.65;;
83560;SDS011;73534;52.584;13.392;2023-12-22T07:21:38;3.65;;;1.85;;
83560;SDS011;73534;52.584;13.392;2023-12-22T07:24:04;3.90;;;2.25;;
83560;SDS011;73534;52.584;13.392;2023-12-22T07:26:30;8.23;;;2.33;;
83560;SDS011;73534;52.584;13.392;2023-12-22T07:28:55;5.50;;;2.20;;
83560;SDS011;73534;52.584;13.392;2023-12-22T07:31:21;3.15;;;1.80;;
83560;SDS011;73534;52.584;13.392;2023-12-22T07:33:46;6.88;;;1.95;;
83560;SDS011;73534;52.584;13.392;2023-12-22T07:36:12;2.85;;;1.92;;
83560;SDS011;73534;52.584;13.392;2023-12-22T07:38:37;5.80;;;2.50;;
83560;SDS011;73534;52.584;13.392;2023-12-22T07:41:04;5.45;;;2.20;;
83560;SDS011;73534;52.584;13.392;2023-12-22T07:43:31;5.18;;;1.80;;
83560;SDS011;73534;52.584;13.392;2023-12-22T07:45:56;4.97;;;2.00;;
83560;SDS011;73534;52.584;13.392;2023-12-22T07:48:22;4.15;;;2.35;;
83560;SDS011;73534;52.584;13.392;2023-12-22T07:50:49;5.13;;;2.13;;
83560;SDS011;73534;52.584;13.392;2023-12-22T07:53:14;6.63;;;2.17;;
83560;SDS011;73534;52.584;13.392;2023-12-22T07:55:40;4.05;;;2.47;;
83560;SDS011;73534;52.584;13.392;2023-12-22T07:58:05;6.85;;;1.85;;
83560;SDS011;73534;52.584;13.392;2023-12-22T08:00:31;3.45;;;2.75;;
83560;SDS011;73534;52.584;13.392;2023-12-22T08:02:56;8.52;;;1.98;;
83560;SDS011;73534;52.584;13.392;2023-12-22T08:05:22;4.20;;;2.88;;
83560;SDS011;73534;52.584;13.392;2023-12-22T08:07:47;6.93;;;2.20;;
83560;SDS011;73534;52.584;13.392;2023-12-22T08:10:12;3.00;;;2.58;;
83560;SDS011;73534;52.584;13.392;2023-12-22T08:12:38;7.10;;;2.70;;
83560;SDS011;73534;52.584;13.392;2023-12-22T08:15:03;3.97;;;1.88;;
83560;SDS011;73534;52.584;13.392;2023-12-22T08:17:29;5.80;;;2.10;;
83560;SDS011;73534;52.584;13.392;2023-12-22T08:19:55;4.50;;;2.55;;
83560;SDS011;73534;52.584;13.392;2023-12-22T08:22:21;2.55;;;1.88;;
83560;SDS011;73534;52.584;13.392;2023-12-22T08:24:47;2.63;;;1.38;;
83560;SDS011;73534;52.584;13.392;2023-12-22T08:27:13;1.80;;;1.70;;
83560;SDS011;73534;52.584;13.392;2023-12-22T08:29:38;4.07;;;1.83;;
83560;SDS011;73534;52.584;13.392;2023-12-22T08:32:04;3.72;;;1.73;;
83560;SDS011;73534;52.584;13.392;2023-12-22T08:34:29;4.68;;;1.95;;
83560;SDS011;73534;52.584;13.392;2023-12-22T08:36:55;5.25;;;1.88;;
83560;SDS011;73534;52.584;13.392;2023-12-22T08:39:21;2.80;;;1.63;;
83560;SDS011;73534;52.584;13.392;2023-12-22T08:41:46;4.03;;;1.63;;
83560;SDS011;73534;52.584;13.392;2023-12-22T08:44:12;5.25;;;1.70;;
83560;SDS011;73534;52.584;13.392;2023-12-22T08:46:39;6.10;;;1.98;;
83560;SDS011;73534;52.584;13.392;2023-12-22T08:49:05;6.57;;;1.98;;
83560;SDS011;73534;52.584;13.392;2023-12-22T08:51:30;4.10;;;1.67;;
83560;SDS011;73534;52.584;13.392;2023-12-22T08:53:55;4.75;;;2.15;;
83560;SDS011;73534;52.584;13.392;2023-12-22T08:56:21;7.05;;;1.75;;
83560;SDS011;73534;52.584;13.392;2023-12-22T08:58:48;2.13;;;1.58;;
83560;SDS011;73534;52.584;13.392;2023-12-22T09:01:16;5.78;;;2.15;;
83560;SDS011;73534;52.584;13.392;2023-12-22T09:03:43;5.20;;;1.90;;
83560;SDS011;73534;52.584;13.392;2023-12-22T09:06:13;3.60;;;2.35;;
83560;SDS011;73534;52.584;13.392;2023-12-22T09:08:42;5.93;;;2.13;;
83560;SDS011;73534;52.584;13.392;2023-12-22T09:11:08;6.43;;;2.47;;
83560;SDS011;73534;52.584;13.392;2023-12-22T09:13:35;6.43;;;2.15;;
83560;SDS011;73534;52.584;13.392;2023-12-22T09:16:03;7.50;;;2.90;;
83560;SDS011;73534;52.584;13.392;2023-12-22T09:18:29;6.00;;;2.30;;
83560;SDS011;73534;52.584;13.392;2023-12-22T09:20:54;4.93;;;1.90;;
83560;SDS011;73534;52.584;13.392;2023-12-22T09:23:19;5.60;;;2.10;;
83560;SDS011;73534;52.584;13.392;2023-12-22T09:25:46;4.50;;;2.38;;
83560;SDS011;73534;52.584;13.392;2023-12-22T09:28:11;6.35;;;2.72;;
83560;SDS011;73534;52.584;13.392;2023-12-22T09:30:36;8.13;;;2.15;;
83560;SDS011;73534;52.584;13.392;2023-12-22T09:33:02;9.20;;;2.83;;
83560;SDS011;73534;52.584;13.392;2023-12-22T09:35:27;4.70;;;2.17;;
83560;SDS011;73534;52.584;13.392;2023-12-22T09:37:53;5.72;;;2.38;;
83560;SDS011;73534;52.584;13.392;2023-12-22T09:40:18;7.47;;;2.33;;
83560;SDS011;73534;52.584;13.392;2023-12-22T09:42:44;8.02;;;2.80;;
83560;SDS011;73534;52.584;13.392;2023-12-22T09:47:37;5.28;;;2.25;;
83560;SDS011;73534;52.584;13.392;2023-12-22T09:52:30;3.78;;;2.33;;
83560;SDS011;73534;52.584;13.392;2023-12-22T09:54:57;4.38;;;2.30;;
83560;SDS011;73534;52.584;13.392;2023-12-22T09:57:23;5.07;;;1.83;;
83560;SDS011;73534;52.584;13.392;2023-12-22T09:59:49;13.63;;;2.65;;
83560;SDS011;73534;52.584;13.392;2023-12-22T10:02:16;6.60;;;2.47;;
83560;SDS011;73534;52.584;13.392;2023-12-22T10:04:42;4.15;;;2.30;;
83560;SDS011;73534;52.584;13.392;2023-12-22T10:07:07;6.28;;;2.85;;
83560;SDS011;73534;52.584;13.392;2023-12-22T10:09:35;5.38;;;2.30;;
83560;SDS011;73534;52.584;13.392;2023-12-22T10:12:01;5.00;;;2.45;;
83560;SDS011;73534;52.584;13.392;2023-12-22T10:14:28;4.50;;;1.75;;
83560;SDS011;73534;52.584;13.392;2023-12-22T10:16:54;12.05;;;2.70;;
83560;SDS011;73534;52.584;13.392;2023-12-22T10:19:21;7.68;;;3.17;;
83560;SDS011;73534;52.584;13.392;2023-12-22T10:21:47;6.05;;;2.45;;
83560;SDS011;73534;52.584;13.392;2023-12-22T10:27:04;4.70;;;2.40;;
83560;SDS011;73534;52.584;13.392;2023-12-22T10:29:30;11.63;;;2.88;;
83560;SDS011;73534;52.584;13.392;2023-12-22T10:31:56;5.38;;;2.42;;
83560;SDS011;73534;52.584;13.392;2023-12-22T10:34:21;7.45;;;2.83;;
83560;SDS011;73534;52.584;13.392;2023-12-22T10:36:46;5.47;;;2.47;;
83560;SDS011;73534;52.584;13.392;2023-12-22T10:39:13;6.10;;;3.05;;
83560;SDS011;73534;52.584;13.392;2023-12-22T10:41:38;9.45;;;3.08;;
83560;SDS011;73534;52.584;13.392;2023-12-22T10:44:03;7.55;;;2.33;;
83560;SDS011;73534;52.584;13.392;2023-12-22T10:46:30;10.32;;;2.97;;
83560;SDS011;73534;52.584;13.392;2023-12-22T10:48:56;7.63;;;2.15;;
83560;SDS011;73534;52.584;13.392;2023-12-22T10:51:22;9.02;;;3.40;;
83560;SDS011;73534;52.584;13.392;2023-12-22T10:53:48;8.95;;;3.03;;
83560;SDS011;73534;52.584;13.392;2023-12-22T10:56:13;10.05;;;2.38;;
83560;SDS011;73534;52.584;13.392;2023-12-22T10:58:38;6.40;;;2.70;;
83560;SDS011;73534;52.584;13.392;2023-12-22T11:01:04;9.32;;;3.10;;
83560;SDS011;73534;52.584;13.392;2023-12-22T11:05:56;9.20;;;2.10;;
83560;SDS011;73534;52.584;13.392;2023-12-22T11:08:23;8.77;;;2.65;;
83560;SDS011;73534;52.584;13.392;2023-12-22T11:10:51;10.68;;;2.30;;
83560;SDS011;73534;52.584;13.392;2023-12-22T11:13:22;2.80;;;2.15;;
83560;SDS011;73534;52.584;13.392;2023-12-22T11:15:48;4.95;;;2.17;;
83560;SDS011;73534;52.584;13.392;2023-12-22T11:18:14;6.07;;;3.25;;
83560;SDS011;73534;52.584;13.392;2023-12-22T11:20:40;10.95;;;2.78;;
83560;SDS011;73534;52.584;13.392;2023-12-22T11:23:06;8.32;;;2.90;;
83560;SDS011;73534;52.584;13.392;2023-12-22T11:25:33;6.72;;;2.45;;
83560;SDS011;73534;52.584;13.392;2023-12-22T11:27:59;5.35;;;2.50;;
83560;SDS011;73534;52.584;13.392;2023-12-22T11:30:25;8.48;;;2.05;;
83560;SDS011;73534;52.584;13.392;2023-12-22T11:32:51;10.77;;;2.45;;
83560;SDS011;73534;52.584;13.392;2023-12-22T11:35:18;6.18;;;2.33;;
83560;SDS011;73534;52.584;13.392;2023-12-22T11:37:43;8.93;;;2.58;;
83560;SDS011;73534;52.584;13.392;2023-12-22T11:40:10;7.15;;;2.30;;
83560;SDS011;73534;52.584;13.392;2023-12-22T11:42:37;6.45;;;2.72;;
83560;SDS011;73534;52.584;13.392;2023-12-22T11:45:09;6.63;;;2.53;;
83560;SDS011;73534;52.584;13.392;2023-12-22T11:50:00;6.23;;;2.70;;
83560;SDS011;73534;52.584;13.392;2023-12-22T11:52:25;4.68;;;1.73;;
83560;SDS011;73534;52.584;13.392;2023-12-22T11:54:53;3.65;;;2.38;;
83560;SDS011;73534;52.584;13.392;2023-12-22T11:57:38;5.03;;;2.13;;
83560;SDS011;73534;52.584;13.392;2023-12-22T12:00:08;5.80;;;2.20;;
83560;SDS011;73534;52.584;13.392;2023-12-22T12:02:36;6.43;;;2.08;;
83560;SDS011;73534;52.584;13.392;2023-12-22T12:05:03;5.70;;;2.30;;
83560;SDS011;73534;52.584;13.392;2023-12-22T12:07:44;5.45;;;2.35;;
83560;SDS011;73534;52.584;13.392;2023-12-22T12:10:12;7.00;;;2.63;;
83560;SDS011;73534;52.584;13.392;2023-12-22T12:12:39;9.75;;;2.22;;
83560;SDS011;73534;52.584;13.392;2023-12-22T12:15:18;3.53;;;1.92;;
83560;SDS011;73534;52.584;13.392;2023-12-22T12:17:44;5.85;;;2.78;;
83560;SDS011;73534;52.584;13.392;2023-12-22T12:20:10;4.00;;;1.90;;
83560;SDS011;73534;52.584;13.392;2023-12-22T12:22:47;6.43;;;2.00;;
83560;SDS011;73534;52.584;13.392;2023-12-22T12:25:12;6.25;;;2.42;;
83560;SDS011;73534;52.584;13.392;2023-12-22T12:27:38;3.75;;;1.52;;
83560;SDS011;73534;52.584;13.392;2023-12-22T12:30:08;10.18;;;2.45;;
83560;SDS011;73534;52.584;13.392;2023-12-22T12:32:37;3.83;;;1.90;;
83560;SDS011;73534;52.584;13.392;2023-12-22T12:35:03;5.03;;;1.70;;
83560;SDS011;73534;52.584;13.392;2023-12-22T12:37:29;9.23;;;1.90;;
83560;SDS011;73534;52.584;13.392;2023-12-22T12:39:55;6.70;;;2.35;;
83560;SDS011;73534;52.584;13.392;2023-12-22T12:42:24;4.85;;;2.97;;
83560;SDS011;73534;52.584;13.392;2023-12-22T12:44:53;5.60;;;2.25;;
83560;SDS011;73534;52.584;13.392;2023-12-22T12:47:18;3.85;;;1.65;;
83560;SDS011;73534;52.584;13.392;2023-12-22T12:49:44;8.02;;;2.35;;
83560;SDS011;73534;52.584;13.392;2023-12-22T12:52:13;7.00;;;2.45;;
83560;SDS011;73534;52.584;13.392;2023-12-22T12:54:39;11.98;;;2.35;;
83560;SDS011;73534;52.584;13.392;2023-12-22T12:57:04;7.68;;;2.92;;
83560;SDS011;73534;52.584;13.392;2023-12-22T12:59:30;7.65;;;2.30;;
83560;SDS011;73534;52.584;13.392;2023-12-22T13:01:55;5.72;;;1.90;;
83560;SDS011;73534;52.584;13.392;2023-12-22T13:04:22;5.05;;;2.47;;
83560;SDS011;73534;52.584;13.392;2023-12-22T13:06:50;6.60;;;2.53;;
83560;SDS011;73534;52.584;13.392;2023-12-22T13:09:16;9.80;;;2.97;;
83560;SDS011;73534;52.584;13.392;2023-12-22T13:11:43;7.28;;;2.72;;
83560;SDS011;73534;52.584;13.392;2023-12-22T13:14:09;8.07;;;2.80;;
83560;SDS011;73534;52.584;13.392;2023-12-22T13:16:35;7.32;;;2.35;;
83560;SDS011;73534;52.584;13.392;2023-12-22T13:19:01;7.03;;;2.30;;
83560;SDS011;73534;52.584;13.392;2023-12-22T13:21:27;8.68;;;2.70;;
83560;SDS011;73534;52.584;13.392;2023-12-22T13:24:13;6.13;;;2.60;;
83560;SDS011;73534;52.584;13.392;2023-12-22T13:26:41;7.65;;;2.22;;
83560;SDS011;73534;52.584;13.392;2023-12-22T13:29:07;13.80;;;2.70;;
83560;SDS011;73534;52.584;13.392;2023-12-22T13:31:33;10.13;;;4.10;;
83560;SDS011;73534;52.584;13.392;2023-12-22T13:33:59;3.88;;;2.08;;
83560;SDS011;73534;52.584;13.392;2023-12-22T13:36:24;11.93;;;2.25;;
83560;SDS011;73534;52.584;13.392;2023-12-22T13:38:50;8.48;;;2.53;;
83560;SDS011;73534;52.584;13.392;2023-12-22T13:41:15;7.50;;;2.22;;
83560;SDS011;73534;52.584;13.392;2023-12-22T13:43:41;5.32;;;2.30;;
83560;SDS011;73534;52.584;13.392;2023-12-22T13:46:06;6.53;;;2.72;;
83560;SDS011;73534;52.584;13.392;2023-12-22T13:48:34;6.20;;;2.45;;
83560;SDS011;73534;52.584;13.392;2023-12-22T13:51:00;10.70;;;2.78;;
83560;SDS011;73534;52.584;13.392;2023-12-22T13:53:26;5.80;;;2.22;;
83560;SDS011;73534;52.584;13.392;2023-12-22T13:55:55;7.07;;;2.70;;
83560;SDS011;73534;52.584;13.392;2023-12-22T13:58:23;6.30;;;2.08;;
83560;SDS011;73534;52.584;13.392;2023-12-22T14:00:49;5.18;;;2.15;;
83560;SDS011;73534;52.584;13.392;2023-12-22T14:03:15;4.90;;;2.80;;
83560;SDS011;73534;52.584;13.392;2023-12-22T14:05:41;9.32;;;3.20;;
83560;SDS011;73534;52.584;13.392;2023-12-22T14:08:07;4.03;;;2.50;;
83560;SDS011;73534;52.584;13.392;2023-12-22T14:10:32;10.20;;;3.40;;
83560;SDS011;73534;52.584;13.392;2023-12-22T14:12:58;5.55;;;2.50;;
83560;SDS011;73534;52.584;13.392;2023-12-22T14:15:23;8.18;;;2.90;;
83560;SDS011;73534;52.584;13.392;2023-12-22T14:17:48;9.48;;;2.63;;
83560;SDS011;73534;52.584;13.392;2023-12-22T14:20:14;5.50;;;1.95;;
83560;SDS011;73534;52.584;13.392;2023-12-22T14:22:39;6.80;;;2.00;;
83560;SDS011;73534;52.584;13.392;2023-12-22T14:25:05;4.57;;;2.20;;
83560;SDS011;73534;52.584;13.392;2023-12-22T14:27:30;6.10;;;2.58;;
83560;SDS011;73534;52.584;13.392;2023-12-22T14:29:56;7.07;;;2.65;;
83560;SDS011;73534;52.584;13.392;2023-12-22T14:32:21;9.45;;;2.55;;
83560;SDS011;73534;52.584;13.392;2023-12-22T14:34:47;6.90;;;2.65;;
83560;SDS011;73534;52.584;13.392;2023-12-22T14:37:14;6.75;;;2.50;;
83560;SDS011;73534;52.584;13.392;2023-12-22T14:39:41;8.20;;;2.30;;
83560;SDS011;73534;52.584;13.392;2023-12-22T14:42:07;3.80;;;1.98;;
83560;SDS011;73534;52.584;13.392;2023-12-22T14:44:32;3.53;;;2.00;;
83560;SDS011;73534;52.584;13.392;2023-12-22T14:46:57;5.95;;;2.05;;